sensor_id;sensor_type;location;lat;lon;timestamp;pressure;altitude;pressure_sealevel;temperature;humidity
35577;BME280;21680;52.400;16.920;2024-02-26T00:00:07;99752.86;;;6.19;86.36
35577;BME280;21680;52.400;16.920;2024-02-26T00:02:37;99750.19;;;6.15;86.31
35577;BME280;21680;52.400;16.920;2024-02-26T00:05:05;99748.80;;;6.10;86.32
35577;BME280;21680;52.400;16.920;2024-02-26T00:07:31;99745.78;;;6.06;86.24
35577;BME280;21680;52.400;16.920;2024-02-26T00:09:56;99748.45;;;6.01;86.34
35577;BME280;21680;52.400;16.920;2024-02-26T00:12:22;99743.80;;;5.97;86.34
35577;BME280;21680;52.400;16.920;2024-02-26T00:14:47;99746.00;;;5.91;86.31
35577;BME280;21680;52.400;16.920;2024-02-26T00:17:15;99742.65;;;5.85;86.22
35577;BME280;21680;52.400;16.920;2024-02-26T00:19:40;99744.93;;;5.81;86.35
35577;BME280;21680;52.400;16.920;2024-02-26T00:22:05;99746.64;;;5.78;86.36
35577;BME280;21680;52.400;16.920;2024-02-26T00:24:31;99748.11;;;5.77;86.44
35577;BME280;21680;52.400;16.920;2024-02-26T00:26:56;99748.52;;;5.71;86.19
35577;BME280;21680;52.400;16.920;2024-02-26T00:29:21;99744.45;;;5.66;86.32
35577;BME280;21680;52.400;16.920;2024-02-26T00:31:47;99745.23;;;5.64;86.41
35577;BME280;21680;52.400;16.920;2024-02-26T00:34:12;99747.25;;;5.63;86.63
35577;BME280;21680;52.400;16.920;2024-02-26T00:36:37;99749.80;;;5.61;86.63
35577;BME280;21680;52.400;16.920;2024-02-26T00:39:03;99745.45;;;5.59;86.50
35577;BME280;21680;52.400;16.920;2024-02-26T00:41:29;99743.20;;;5.57;86.67
35577;BME280;21680;52.400;16.920;2024-02-26T00:43:54;99741.25;;;5.57;86.79
35577;BME280;21680;52.400;16.920;2024-02-26T00:46:19;99742.63;;;5.53;86.53
35577;BME280;21680;52.400;16.920;2024-02-26T00:48:45;99740.13;;;5.49;86.61
35577;BME280;21680;52.400;16.920;2024-02-26T00:51:10;99746.82;;;5.45;86.59
35577;BME280;21680;52.400;16.920;2024-02-26T00:53:35;99741.72;;;5.44;86.76
35577;BME280;21680;52.400;16.920;2024-02-26T00:56:00;99743.42;;;5.41;86.82
35577;BME280;21680;52.400;16.920;2024-02-26T00:58:27;99742.63;;;5.39;86.73
35577;BME280;21680;52.400;16.920;2024-02-26T01:00:52;99743.94;;;5.37;86.80
35577;BME280;21680;52.400;16.920;2024-02-26T01:03:18;99739.98;;;5.34;86.77
35577;BME280;21680;52.400;16.920;2024-02-26T01:05:44;99740.34;;;5.29;86.75
35577;BME280;21680;52.400;16.920;2024-02-26T01:08:10;99743.66;;;5.25;86.78
35577;BME280;21680;52.400;16.920;2024-02-26T01:10:35;99747.05;;;5.24;87.10
35577;BME280;21680;52.400;16.920;2024-02-26T01:13:01;99747.05;;;5.24;86.93
35577;BME280;21680;52.400;16.920;2024-02-26T01:15:26;99750.80;;;5.19;87.03
35577;BME280;21680;52.400;16.920;2024-02-26T01:17:52;99750.95;;;5.16;86.73
35577;BME280;21680;52.400;16.920;2024-02-26T01:20:17;99751.66;;;5.10;86.88
35577;BME280;21680;52.400;16.920;2024-02-26T01:22:43;99749.11;;;5.07;86.77
35577;BME280;21680;52.400;16.920;2024-02-26T01:25:09;99749.42;;;5.04;86.83
35577;BME280;21680;52.400;16.920;2024-02-26T01:27:35;99747.81;;;5.04;87.05
35577;BME280;21680;52.400;16.920;2024-02-26T01:30:04;99746.54;;;5.05;87.14
35577;BME280;21680;52.400;16.920;2024-02-26T01:32:31;99744.50;;;5.03;87.01
35577;BME280;21680;52.400;16.920;2024-02-26T01:34:57;99743.38;;;4.99;87.01
35577;BME280;21680;52.400;16.920;2024-02-26T01:37:25;99743.83;;;4.97;87.17
35577;BME280;21680;52.400;16.920;2024-02-26T01:39:51;99743.10;;;4.92;87.12
35577;BME280;21680;52.400;16.920;2024-02-26T01:42:16;99744.04;;;4.91;87.10
35577;BME280;21680;52.400;16.920;2024-02-26T01:44:41;99738.36;;;4.91;87.24
35577;BME280;21680;52.400;16.920;2024-02-26T01:47:10;99740.23;;;4.87;87.18
35577;BME280;21680;52.400;16.920;2024-02-26T01:49:37;99747.61;;;4.84;87.16
35577;BME280;21680;52.400;16.920;2024-02-26T01:52:04;99746.24;;;4.83;87.35
35577;BME280;21680;52.400;16.920;2024-02-26T01:54:35;99745.91;;;4.82;87.39
35577;BME280;21680;52.400;16.920;2024-02-26T01:57:06;99748.35;;;4.78;87.39
35577;BME280;21680;52.400;16.920;2024-02-26T01:59:34;99742.84;;;4.74;87.44
35577;BME280;21680;52.400;16.920;2024-02-26T02:02:01;99743.72;;;4.74;87.48
35577;BME280;21680;52.400;16.920;2024-02-26T02:04:31;99742.93;;;4.71;87.29
35577;BME280;21680;52.400;16.920;2024-02-26T02:06:58;99749.34;;;4.70;87.46
35577;BME280;21680;52.400;16.920;2024-02-26T02:09:25;99747.84;;;4.68;87.44
35577;BME280;21680;52.400;16.920;2024-02-26T02:11:51;99750.92;;;4.65;87.48
35577;BME280;21680;52.400;16.920;2024-02-26T02:14:16;99750.11;;;4.63;87.24
35577;BME280;21680;52.400;16.920;2024-02-26T02:16:42;99750.79;;;4.59;87.34
35577;BME280;21680;52.400;16.920;2024-02-26T02:19:07;99751.98;;;4.55;87.41
35577;BME280;21680;52.400;16.920;2024-02-26T02:21:33;99749.71;;;4.54;87.44
35577;BME280;21680;52.400;16.920;2024-02-26T02:23:58;99753.77;;;4.49;87.37
35577;BME280;21680;52.400;16.920;2024-02-26T02:26:23;99751.53;;;4.47;87.46
35577;BME280;21680;52.400;16.920;2024-02-26T02:28:49;99755.48;;;4.45;87.46
35577;BME280;21680;52.400;16.920;2024-02-26T02:31:15;99756.63;;;4.42;87.29
35577;BME280;21680;52.400;16.920;2024-02-26T02:33:41;99756.22;;;4.39;87.31
35577;BME280;21680;52.400;16.920;2024-02-26T02:36:06;99755.59;;;4.36;87.33
35577;BME280;21680;52.400;16.920;2024-02-26T02:38:36;99750.02;;;4.34;87.35
35577;BME280;21680;52.400;16.920;2024-02-26T02:41:01;99756.78;;;4.27;87.14
35577;BME280;21680;52.400;16.920;2024-02-26T02:43:26;99755.17;;;4.21;87.28
35577;BME280;21680;52.400;16.920;2024-02-26T02:45:52;99746.96;;;4.18;87.21
35577;BME280;21680;52.400;16.920;2024-02-26T02:48:17;99748.45;;;4.16;87.37
35577;BME280;21680;52.400;16.920;2024-02-26T02:50:42;99749.09;;;4.13;87.43
35577;BME280;21680;52.400;16.920;2024-02-26T02:53:07;99749.48;;;4.12;87.33
35577;BME280;21680;52.400;16.920;2024-02-26T02:55:32;99745.66;;;4.09;87.30
35577;BME280;21680;52.400;16.920;2024-02-26T02:57:58;99740.92;;;4.03;87.23
35577;BME280;21680;52.400;16.920;2024-02-26T03:00:23;99740.04;;;3.97;87.27
35577;BME280;21680;52.400;16.920;2024-02-26T03:02:49;99735.60;;;3.92;87.41
35577;BME280;21680;52.400;16.920;2024-02-26T03:05:15;99733.23;;;3.89;87.33
35577;BME280;21680;52.400;16.920;2024-02-26T03:07:40;99727.11;;;3.86;87.37
35577;BME280;21680;52.400;16.920;2024-02-26T03:10:06;99722.34;;;3.81;87.30
35577;BME280;21680;52.400;16.920;2024-02-26T03:12:32;99720.00;;;3.77;87.37
35577;BME280;21680;52.400;16.920;2024-02-26T03:14:57;99719.70;;;3.75;87.41
35577;BME280;21680;52.400;16.920;2024-02-26T03:17:22;99720.09;;;3.74;87.52
35577;BME280;21680;52.400;16.920;2024-02-26T03:19:49;99721.05;;;3.71;87.52
35577;BME280;21680;52.400;16.920;2024-02-26T03:22:18;99720.09;;;3.68;87.71
35577;BME280;21680;52.400;16.920;2024-02-26T03:24:44;99721.88;;;3.67;87.61
35577;BME280;21680;52.400;16.920;2024-02-26T03:27:10;99724.59;;;3.65;87.56
35577;BME280;21680;52.400;16.920;2024-02-26T03:29:37;99724.55;;;3.60;87.59
35577;BME280;21680;52.400;16.920;2024-02-26T03:32:02;99722.33;;;3.58;87.59
35577;BME280;21680;52.400;16.920;2024-02-26T03:34:28;99723.46;;;3.55;87.47
35577;BME280;21680;52.400;16.920;2024-02-26T03:36:53;99723.55;;;3.52;87.35
35577;BME280;21680;52.400;16.920;2024-02-26T03:39:19;99721.71;;;3.49;87.59
35577;BME280;21680;52.400;16.920;2024-02-26T03:41:44;99720.53;;;3.47;87.62
35577;BME280;21680;52.400;16.920;2024-02-26T03:44:09;99721.40;;;3.47;87.73
35577;BME280;21680;52.400;16.920;2024-02-26T03:46:35;99718.79;;;3.46;87.81
35577;BME280;21680;52.400;16.920;2024-02-26T03:49:00;99720.08;;;3.44;87.65
35577;BME280;21680;52.400;16.920;2024-02-26T03:51:26;99721.73;;;3.42;87.90
35577;BME280;21680;52.400;16.920;2024-02-26T03:53:53;99726.30;;;3.42;87.73
35577;BME280;21680;52.400;16.920;2024-02-26T03:56:18;99730.55;;;3.42;87.96
35577;BME280;21680;52.400;16.920;2024-02-26T03:58:43;99731.58;;;3.38;87.67
35577;BME280;21680;52.400;16.920;2024-02-26T04:01:09;99736.02;;;3.36;87.86
35577;BME280;21680;52.400;16.920;2024-02-26T04:03:34;99740.12;;;3.41;88.15
35577;BME280;21680;52.400;16.920;2024-02-26T04:06:00;99742.38;;;3.43;87.72
35577;BME280;21680;52.400;16.920;2024-02-26T04:08:26;99744.89;;;3.41;87.96
35577;BME280;21680;52.400;16.920;2024-02-26T04:10:52;99747.01;;;3.41;88.02
35577;BME280;21680;52.400;16.920;2024-02-26T04:13:17;99742.28;;;3.40;87.86
35577;BME280;21680;52.400;16.920;2024-02-26T04:15:43;99742.17;;;3.37;88.10
35577;BME280;21680;52.400;16.920;2024-02-26T04:18:08;99744.64;;;3.37;87.83
35577;BME280;21680;52.400;16.920;2024-02-26T04:20:34;99742.55;;;3.37;88.01
35577;BME280;21680;52.400;16.920;2024-02-26T04:22:59;99743.41;;;3.37;88.11
35577;BME280;21680;52.400;16.920;2024-02-26T04:25:25;99742.61;;;3.34;87.98
35577;BME280;21680;52.400;16.920;2024-02-26T04:27:50;99741.02;;;3.29;87.93
35577;BME280;21680;52.400;16.920;2024-02-26T04:30:15;99740.60;;;3.24;88.11
35577;BME280;21680;52.400;16.920;2024-02-26T04:32:42;99743.70;;;3.21;87.87
35577;BME280;21680;52.400;16.920;2024-02-26T04:35:07;99750.10;;;3.19;87.98
35577;BME280;21680;52.400;16.920;2024-02-26T04:37:33;99751.31;;;3.20;87.99
35577;BME280;21680;52.400;16.920;2024-02-26T04:39:59;99748.80;;;3.22;88.16
35577;BME280;21680;52.400;16.920;2024-02-26T04:42:25;99747.63;;;3.19;88.09
35577;BME280;21680;52.400;16.920;2024-02-26T04:44:51;99743.39;;;3.19;88.17
35577;BME280;21680;52.400;16.920;2024-02-26T04:47:16;99742.38;;;3.18;88.13
35577;BME280;21680;52.400;16.920;2024-02-26T04:49:41;99747.17;;;3.17;88.17
35577;BME280;21680;52.400;16.920;2024-02-26T04:52:07;99748.95;;;3.16;88.05
35577;BME280;21680;52.400;16.920;2024-02-26T04:54:33;99750.45;;;3.13;88.10
35577;BME280;21680;52.400;16.920;2024-02-26T04:56:58;99754.25;;;3.10;88.12
35577;BME280;21680;52.400;16.920;2024-02-26T04:59:24;99751.99;;;3.08;88.27
35577;BME280;21680;52.400;16.920;2024-02-26T05:01:49;99748.66;;;3.08;88.07
35577;BME280;21680;52.400;16.920;2024-02-26T05:04:17;99747.88;;;3.04;88.02
35577;BME280;21680;52.400;16.920;2024-02-26T05:06:42;99749.63;;;3.04;87.95
35577;BME280;21680;52.400;16.920;2024-02-26T05:09:07;99750.90;;;3.03;88.15
35577;BME280;21680;52.400;16.920;2024-02-26T05:11:33;99754.61;;;3.03;88.11
35577;BME280;21680;52.400;16.920;2024-02-26T05:13:58;99754.55;;;2.99;88.04
35577;BME280;21680;52.400;16.920;2024-02-26T05:16:26;99753.37;;;2.97;88.20
35577;BME280;21680;52.400;16.920;2024-02-26T05:18:52;99751.96;;;2.96;88.11
35577;BME280;21680;52.400;16.920;2024-02-26T05:21:18;99747.59;;;2.95;88.04
35577;BME280;21680;52.400;16.920;2024-02-26T05:23:44;99755.81;;;2.91;88.18
35577;BME280;21680;52.400;16.920;2024-02-26T05:26:10;99756.56;;;2.89;87.96
35577;BME280;21680;52.400;16.920;2024-02-26T05:28:35;99757.28;;;2.89;88.10
35577;BME280;21680;52.400;16.920;2024-02-26T05:31:02;99770.68;;;2.89;88.20
35577;BME280;21680;52.400;16.920;2024-02-26T05:33:28;99772.84;;;2.87;88.13
35577;BME280;21680;52.400;16.920;2024-02-26T05:35:53;99776.39;;;2.86;88.36
35577;BME280;21680;52.400;16.920;2024-02-26T05:38:20;99775.17;;;2.86;88.15
35577;BME280;21680;52.400;16.920;2024-02-26T05:40:45;99782.52;;;2.88;88.25
35577;BME280;21680;52.400;16.920;2024-02-26T05:43:11;99786.60;;;2.88;88.15
35577;BME280;21680;52.400;16.920;2024-02-26T05:45:36;99788.20;;;2.87;88.17
35577;BME280;21680;52.400;16.920;2024-02-26T05:48:01;99790.52;;;2.86;88.25
35577;BME280;21680;52.400;16.920;2024-02-26T05:50:28;99790.45;;;2.82;88.12
35577;BME280;21680;52.400;16.920;2024-02-26T05:52:53;99791.21;;;2.80;88.23
35577;BME280;21680;52.400;16.920;2024-02-26T05:55:18;99790.92;;;2.77;88.08
35577;BME280;21680;52.400;16.920;2024-02-26T05:57:44;99788.18;;;2.74;88.17
35577;BME280;21680;52.400;16.920;2024-02-26T06:00:10;99782.60;;;2.72;88.38
35577;BME280;21680;52.400;16.920;2024-02-26T06:02:35;99782.67;;;2.69;88.13
35577;BME280;21680;52.400;16.920;2024-02-26T06:05:00;99787.30;;;2.67;88.34
35577;BME280;21680;52.400;16.920;2024-02-26T06:07:25;99783.99;;;2.66;88.21
35577;BME280;21680;52.400;16.920;2024-02-26T06:09:51;99780.96;;;2.67;88.40
35577;BME280;21680;52.400;16.920;2024-02-26T06:12:16;99784.11;;;2.68;88.31
35577;BME280;21680;52.400;16.920;2024-02-26T06:14:42;99783.64;;;2.72;88.58
35577;BME280;21680;52.400;16.920;2024-02-26T06:17:08;99784.48;;;2.74;88.44
35577;BME280;21680;52.400;16.920;2024-02-26T06:19:33;99785.46;;;2.77;88.64
35577;BME280;21680;52.400;16.920;2024-02-26T06:21:59;99785.73;;;2.80;88.59
35577;BME280;21680;52.400;16.920;2024-02-26T06:24:24;99785.50;;;2.82;88.65
35577;BME280;21680;52.400;16.920;2024-02-26T06:26:49;99782.77;;;2.86;88.68
35577;BME280;21680;52.400;16.920;2024-02-26T06:29:15;99782.67;;;2.89;88.56
35577;BME280;21680;52.400;16.920;2024-02-26T06:31:40;99784.23;;;2.90;88.63
35577;BME280;21680;52.400;16.920;2024-02-26T06:34:05;99786.64;;;2.92;88.82
35577;BME280;21680;52.400;16.920;2024-02-26T06:36:30;99787.82;;;2.95;88.85
35577;BME280;21680;52.400;16.920;2024-02-26T06:38:57;99789.48;;;2.99;88.62
35577;BME280;21680;52.400;16.920;2024-02-26T06:41:22;99790.67;;;3.01;88.72
35577;BME280;21680;52.400;16.920;2024-02-26T06:43:53;99793.59;;;3.04;88.97
35577;BME280;21680;52.400;16.920;2024-02-26T06:46:18;99792.95;;;3.08;88.90
35577;BME280;21680;52.400;16.920;2024-02-26T06:48:43;99793.92;;;3.11;88.96
35577;BME280;21680;52.400;16.920;2024-02-26T06:51:09;99797.39;;;3.14;88.96
35577;BME280;21680;52.400;16.920;2024-02-26T06:53:34;99802.41;;;3.17;88.96
35577;BME280;21680;52.400;16.920;2024-02-26T06:56:00;99802.31;;;3.21;89.08
35577;BME280;21680;52.400;16.920;2024-02-26T06:58:25;99803.96;;;3.25;89.21
35577;BME280;21680;52.400;16.920;2024-02-26T07:00:50;99803.83;;;3.30;89.15
35577;BME280;21680;52.400;16.920;2024-02-26T07:03:15;99803.71;;;3.34;89.13
35577;BME280;21680;52.400;16.920;2024-02-26T07:05:40;99803.10;;;3.37;89.36
35577;BME280;21680;52.400;16.920;2024-02-26T07:08:06;99802.66;;;3.40;89.00
35577;BME280;21680;52.400;16.920;2024-02-26T07:10:31;99805.21;;;3.44;89.24
35577;BME280;21680;52.400;16.920;2024-02-26T07:12:57;99804.45;;;3.46;89.18
35577;BME280;21680;52.400;16.920;2024-02-26T07:15:22;99806.60;;;3.51;89.23
35577;BME280;21680;52.400;16.920;2024-02-26T07:17:47;99807.21;;;3.54;89.08
35577;BME280;21680;52.400;16.920;2024-02-26T07:20:14;99806.23;;;3.57;89.35
35577;BME280;21680;52.400;16.920;2024-02-26T07:22:39;99804.91;;;3.61;89.29
35577;BME280;21680;52.400;16.920;2024-02-26T07:25:06;99801.48;;;3.63;89.30
35577;BME280;21680;52.400;16.920;2024-02-26T07:27:33;99802.14;;;3.65;89.24
35577;BME280;21680;52.400;16.920;2024-02-26T07:29:59;99802.11;;;3.66;89.25
35577;BME280;21680;52.400;16.920;2024-02-26T07:32:24;99799.44;;;3.67;89.19
35577;BME280;21680;52.400;16.920;2024-02-26T07:34:49;99800.65;;;3.68;89.16
35577;BME280;21680;52.400;16.920;2024-02-26T07:37:15;99801.48;;;3.69;89.38
35577;BME280;21680;52.400;16.920;2024-02-26T07:39:40;99800.36;;;3.72;89.17
35577;BME280;21680;52.400;16.920;2024-02-26T07:42:05;99804.17;;;3.74;89.32
35577;BME280;21680;52.400;16.920;2024-02-26T07:44:32;99797.57;;;3.76;89.24
35577;BME280;21680;52.400;16.920;2024-02-26T07:46:58;99796.41;;;3.80;89.38
35577;BME280;21680;52.400;16.920;2024-02-26T07:49:23;99796.46;;;3.84;89.35
35577;BME280;21680;52.400;16.920;2024-02-26T07:51:48;99793.34;;;3.88;89.37
35577;BME280;21680;52.400;16.920;2024-02-26T07:54:13;99797.45;;;3.92;89.69
35577;BME280;21680;52.400;16.920;2024-02-26T07:56:41;99804.02;;;3.97;89.58
35577;BME280;21680;52.400;16.920;2024-02-26T07:59:06;99811.49;;;4.02;89.75
35577;BME280;21680;52.400;16.920;2024-02-26T08:01:32;99818.28;;;4.05;89.45
35577;BME280;21680;52.400;16.920;2024-02-26T08:03:58;99829.33;;;4.08;89.53
35577;BME280;21680;52.400;16.920;2024-02-26T08:06:24;99831.77;;;4.09;89.48
35577;BME280;21680;52.400;16.920;2024-02-26T08:08:50;99836.09;;;4.12;89.63
35577;BME280;21680;52.400;16.920;2024-02-26T08:11:15;99832.48;;;4.14;89.54
35577;BME280;21680;52.400;16.920;2024-02-26T08:13:41;99832.04;;;4.18;89.69
35577;BME280;21680;52.400;16.920;2024-02-26T08:16:06;99836.00;;;4.21;89.79
35577;BME280;21680;52.400;16.920;2024-02-26T08:18:32;99834.49;;;4.24;89.82
35577;BME280;21680;52.400;16.920;2024-02-26T08:20:57;99834.93;;;4.27;89.87
35577;BME280;21680;52.400;16.920;2024-02-26T08:23:22;99833.91;;;4.32;89.77
35577;BME280;21680;52.400;16.920;2024-02-26T08:25:47;99829.73;;;4.36;89.79
35577;BME280;21680;52.400;16.920;2024-02-26T08:28:13;99832.38;;;4.41;90.04
35577;BME280;21680;52.400;16.920;2024-02-26T08:30:39;99835.61;;;4.45;89.95
35577;BME280;21680;52.400;16.920;2024-02-26T08:33:04;99831.78;;;4.49;90.04
35577;BME280;21680;52.400;16.920;2024-02-26T08:35:30;99830.97;;;4.52;89.95
35577;BME280;21680;52.400;16.920;2024-02-26T08:37:55;99832.06;;;4.57;89.95
35577;BME280;21680;52.400;16.920;2024-02-26T08:40:21;99833.67;;;4.62;90.25
35577;BME280;21680;52.400;16.920;2024-02-26T08:42:46;99834.36;;;4.68;90.18
35577;BME280;21680;52.400;16.920;2024-02-26T08:45:12;99830.84;;;4.72;90.31
35577;BME280;21680;52.400;16.920;2024-02-26T08:47:38;99830.52;;;4.77;90.23
35577;BME280;21680;52.400;16.920;2024-02-26T08:50:04;99828.62;;;4.81;90.28
35577;BME280;21680;52.400;16.920;2024-02-26T08:52:30;99828.80;;;4.86;90.36
35577;BME280;21680;52.400;16.920;2024-02-26T08:54:55;99830.23;;;4.91;90.35
35577;BME280;21680;52.400;16.920;2024-02-26T08:57:22;99835.90;;;4.96;90.38
35577;BME280;21680;52.400;16.920;2024-02-26T08:59:47;99832.41;;;5.00;90.59
35577;BME280;21680;52.400;16.920;2024-02-26T09:02:12;99833.48;;;5.05;90.38
35577;BME280;21680;52.400;16.920;2024-02-26T09:04:38;99834.19;;;5.10;90.64
35577;BME280;21680;52.400;16.920;2024-02-26T09:07:03;99832.23;;;5.15;90.59
35577;BME280;21680;52.400;16.920;2024-02-26T09:09:28;99834.45;;;5.22;90.60
35577;BME280;21680;52.400;16.920;2024-02-26T09:11:53;99834.80;;;5.28;90.72
35577;BME280;21680;52.400;16.920;2024-02-26T09:14:20;99835.21;;;5.36;90.87
35577;BME280;21680;52.400;16.920;2024-02-26T09:16:46;99835.15;;;5.42;90.73
35577;BME280;21680;52.400;16.920;2024-02-26T09:19:13;99833.54;;;5.48;90.78
35577;BME280;21680;52.400;16.920;2024-02-26T09:21:45;99824.58;;;5.55;91.06
35577;BME280;21680;52.400;16.920;2024-02-26T09:24:11;99821.91;;;5.66;91.11
35577;BME280;21680;52.400;16.920;2024-02-26T09:26:37;99821.67;;;5.72;91.07
35577;BME280;21680;52.400;16.920;2024-02-26T09:29:02;99820.25;;;5.77;90.94
35577;BME280;21680;52.400;16.920;2024-02-26T09:31:29;99821.48;;;5.82;91.12
35577;BME280;21680;52.400;16.920;2024-02-26T09:33:55;99816.78;;;5.90;91.30
35577;BME280;21680;52.400;16.920;2024-02-26T09:36:20;99815.66;;;5.96;91.18
35577;BME280;21680;52.400;16.920;2024-02-26T09:38:46;99818.33;;;6.01;91.27
35577;BME280;21680;52.400;16.920;2024-02-26T09:41:15;99815.70;;;6.04;91.22
35577;BME280;21680;52.400;16.920;2024-02-26T09:43:44;99820.90;;;6.12;91.35
35577;BME280;21680;52.400;16.920;2024-02-26T09:46:11;99824.14;;;6.20;91.47
35577;BME280;21680;52.400;16.920;2024-02-26T09:48:37;99825.33;;;6.27;91.36
35577;BME280;21680;52.400;16.920;2024-02-26T09:51:03;99823.00;;;6.31;91.33
35577;BME280;21680;52.400;16.920;2024-02-26T09:53:29;99824.91;;;6.37;91.42
35577;BME280;21680;52.400;16.920;2024-02-26T09:55:57;99827.61;;;6.45;91.44
35577;BME280;21680;52.400;16.920;2024-02-26T09:58:28;99826.67;;;6.51;91.49
35577;BME280;21680;52.400;16.920;2024-02-26T10:00:57;99837.30;;;6.56;91.54
35577;BME280;21680;52.400;16.920;2024-02-26T10:03:30;99834.10;;;6.60;91.44
35577;BME280;21680;52.400;16.920;2024-02-26T10:05:57;99830.17;;;6.65;91.55
35577;BME280;21680;52.400;16.920;2024-02-26T10:08:23;99824.34;;;6.73;91.47
35577;BME280;21680;52.400;16.920;2024-02-26T10:10:50;99824.12;;;6.78;91.51
35577;BME280;21680;52.400;16.920;2024-02-26T10:13:15;99815.91;;;6.84;91.54
35577;BME280;21680;52.400;16.920;2024-02-26T10:15:41;99815.24;;;6.91;91.61
35577;BME280;21680;52.400;16.920;2024-02-26T10:18:06;99818.91;;;6.97;91.48
35577;BME280;21680;52.400;16.920;2024-02-26T10:20:32;99822.66;;;7.01;91.54
35577;BME280;21680;52.400;16.920;2024-02-26T10:22:57;99828.67;;;7.06;91.55
35577;BME280;21680;52.400;16.920;2024-02-26T10:25:23;99828.04;;;7.08;91.62
35577;BME280;21680;52.400;16.920;2024-02-26T10:27:48;99823.00;;;7.10;91.45
35577;BME280;21680;52.400;16.920;2024-02-26T10:30:20;99820.73;;;7.09;91.49
35577;BME280;21680;52.400;16.920;2024-02-26T10:32:47;99819.11;;;7.09;91.45
35577;BME280;21680;52.400;16.920;2024-02-26T10:35:14;99820.87;;;7.09;91.46
35577;BME280;21680;52.400;16.920;2024-02-26T10:37:40;99817.32;;;7.14;91.58
35577;BME280;21680;52.400;16.920;2024-02-26T10:40:10;99815.27;;;7.20;91.65
35577;BME280;21680;52.400;16.920;2024-02-26T10:42:36;99813.98;;;7.25;91.63
35577;BME280;21680;52.400;16.920;2024-02-26T10:45:01;99810.89;;;7.31;91.73
35577;BME280;21680;52.400;16.920;2024-02-26T10:47:29;99812.77;;;7.37;91.75
35577;BME280;21680;52.400;16.920;2024-02-26T10:49:56;99812.92;;;7.41;91.76
35577;BME280;21680;52.400;16.920;2024-02-26T10:52:22;99815.71;;;7.46;91.77
35577;BME280;21680;52.400;16.920;2024-02-26T10:54:50;99818.53;;;7.51;91.79
35577;BME280;21680;52.400;16.920;2024-02-26T10:57:18;99820.33;;;7.55;91.81
35577;BME280;21680;52.400;16.920;2024-02-26T10:59:44;99817.77;;;7.60;91.80
35577;BME280;21680;52.400;16.920;2024-02-26T11:02:13;99817.23;;;7.68;91.97
35577;BME280;21680;52.400;16.920;2024-02-26T11:04:39;99815.85;;;7.79;92.07
35577;BME280;21680;52.400;16.920;2024-02-26T11:07:04;99818.21;;;7.93;92.06
35577;BME280;21680;52.400;16.920;2024-02-26T11:09:31;99818.13;;;8.03;92.03
35577;BME280;21680;52.400;16.920;2024-02-26T11:11:58;99818.14;;;8.14;92.10
35577;BME280;21680;52.400;16.920;2024-02-26T11:14:25;99814.90;;;8.23;91.98
35577;BME280;21680;52.400;16.920;2024-02-26T11:16:51;99811.79;;;8.32;92.00
35577;BME280;21680;52.400;16.920;2024-02-26T11:19:18;99805.59;;;8.39;91.91
35577;BME280;21680;52.400;16.920;2024-02-26T11:21:43;99806.18;;;8.45;92.02
35577;BME280;21680;52.400;16.920;2024-02-26T11:24:12;99802.33;;;8.51;91.85
35577;BME280;21680;52.400;16.920;2024-02-26T11:27:01;99800.48;;;8.57;91.74
35577;BME280;21680;52.400;16.920;2024-02-26T11:29:39;99802.70;;;8.66;91.84
35577;BME280;21680;52.400;16.920;2024-02-26T11:32:06;99802.31;;;8.70;91.71
35577;BME280;21680;52.400;16.920;2024-02-26T11:34:33;99800.61;;;8.72;91.55
35577;BME280;21680;52.400;16.920;2024-02-26T11:37:09;99799.45;;;8.74;91.60
35577;BME280;21680;52.400;16.920;2024-02-26T11:39:34;99800.98;;;8.79;91.63
35577;BME280;21680;52.400;16.920;2024-02-26T11:42:08;99798.48;;;8.90;91.70
35577;BME280;21680;52.400;16.920;2024-02-26T11:44:34;99797.47;;;8.99;91.59
35577;BME280;21680;52.400;16.920;2024-02-26T11:47:17;99796.95;;;9.06;91.57
35577;BME280;21680;52.400;16.920;2024-02-26T11:49:43;99804.16;;;9.15;91.50
35577;BME280;21680;52.400;16.920;2024-02-26T11:52:09;99803.08;;;9.22;91.52
35577;BME280;21680;52.400;16.920;2024-02-26T11:54:52;99802.23;;;9.28;91.44
35577;BME280;21680;52.400;16.920;2024-02-26T11:57:27;99801.23;;;9.33;91.35
35577;BME280;21680;52.400;16.920;2024-02-26T11:59:55;99798.23;;;9.43;91.47
35577;BME280;21680;52.400;16.920;2024-02-26T12:02:51;99793.70;;;9.51;91.34
35577;BME280;21680;52.400;16.920;2024-02-26T12:05:23;99792.25;;;9.59;91.25
35577;BME280;21680;52.400;16.920;2024-02-26T12:07:55;99796.52;;;9.62;91.17
35577;BME280;21680;52.400;16.920;2024-02-26T12:10:30;99794.50;;;9.66;91.16
35577;BME280;21680;52.400;16.920;2024-02-26T12:15:37;99791.95;;;9.77;91.09
35577;BME280;21680;52.400;16.920;2024-02-26T12:18:06;99789.66;;;9.84;90.99
35577;BME280;21680;52.400;16.920;2024-02-26T12:20:36;99789.48;;;9.87;90.91
35577;BME280;21680;52.400;16.920;2024-02-26T12:23:03;99788.79;;;9.90;90.93
35577;BME280;21680;52.400;16.920;2024-02-26T12:25:33;99791.33;;;9.95;90.95
35577;BME280;21680;52.400;16.920;2024-02-26T12:27:59;99790.17;;;10.03;90.90
35577;BME280;21680;52.400;16.920;2024-02-26T12:30:25;99791.36;;;10.11;90.80
35577;BME280;21680;52.400;16.920;2024-02-26T12:32:52;99791.36;;;10.18;90.76
35577;BME280;21680;52.400;16.920;2024-02-26T12:35:22;99792.10;;;10.24;90.71
35577;BME280;21680;52.400;16.920;2024-02-26T12:37:47;99794.86;;;10.32;90.74
35577;BME280;21680;52.400;16.920;2024-02-26T12:40:12;99797.61;;;10.37;90.76
35577;BME280;21680;52.400;16.920;2024-02-26T12:42:38;99802.67;;;10.42;90.61
35577;BME280;21680;52.400;16.920;2024-02-26T12:45:10;99796.20;;;10.49;90.59
35577;BME280;21680;52.400;16.920;2024-02-26T12:47:37;99791.87;;;10.56;90.49
35577;BME280;21680;52.400;16.920;2024-02-26T12:50:04;99792.19;;;10.63;90.44
35577;BME280;21680;52.400;16.920;2024-02-26T12:52:34;99791.36;;;10.68;90.28
35577;BME280;21680;52.400;16.920;2024-02-26T12:55:04;99792.97;;;10.71;90.15
35577;BME280;21680;52.400;16.920;2024-02-26T12:57:36;99789.45;;;10.73;90.15